sensor_id;sensor_type;location;lat;lon;timestamp;P1;durP1;ratioP1;P2;durP2;ratioP2
62798;SDS011;48842;51.046;13.796;2023-08-31T00:01:32;4.03;;;3.73;;
62798;SDS011;48842;51.046;13.796;2023-08-31T00:04:00;5.60;;;3.73;;
62798;SDS011;48842;51.046;13.796;2023-08-31T00:06:25;3.40;;;3.20;;
62798;SDS011;48842;51.046;13.796;2023-08-31T00:08:51;4.13;;;3.83;;
62798;SDS011;48842;51.046;13.796;2023-08-31T00:11:16;9.33;;;4.30;;
62798;SDS011;48842;51.046;13.796;2023-08-31T00:13:41;4.73;;;4.33;;
62798;SDS011;48842;51.046;13.796;2023-08-31T00:16:07;3.90;;;3.23;;
62798;SDS011;48842;51.046;13.796;2023-08-31T00:18:34;3.67;;;3.47;;
62798;SDS011;48842;51.046;13.796;2023-08-31T00:21:01;6.10;;;4.50;;
62798;SDS011;48842;51.046;13.796;2023-08-31T00:23:27;3.80;;;3.43;;
62798;SDS011;48842;51.046;13.796;2023-08-31T00:25:52;3.87;;;3.57;;
62798;SDS011;48842;51.046;13.796;2023-08-31T00:28:18;3.57;;;3.27;;
62798;SDS011;48842;51.046;13.796;2023-08-31T00:30:44;6.90;;;4.30;;
62798;SDS011;48842;51.046;13.796;2023-08-31T00:33:13;4.37;;;4.07;;
62798;SDS011;48842;51.046;13.796;2023-08-31T00:35:39;4.23;;;3.93;;
62798;SDS011;48842;51.046;13.796;2023-08-31T00:38:09;4.43;;;4.03;;
62798;SDS011;48842;51.046;13.796;2023-08-31T00:40:38;3.60;;;3.30;;
62798;SDS011;48842;51.046;13.796;2023-08-31T00:43:06;4.00;;;3.70;;
62798;SDS011;48842;51.046;13.796;2023-08-31T00:45:32;3.80;;;3.50;;
62798;SDS011;48842;51.046;13.796;2023-08-31T00:47:57;2.77;;;2.57;;
62798;SDS011;48842;51.046;13.796;2023-08-31T00:50:23;3.67;;;3.37;;
62798;SDS011;48842;51.046;13.796;2023-08-31T00:52:48;6.90;;;3.40;;
62798;SDS011;48842;51.046;13.796;2023-08-31T00:55:13;3.57;;;3.33;;
62798;SDS011;48842;51.046;13.796;2023-08-31T00:57:39;3.37;;;3.17;;
62798;SDS011;48842;51.046;13.796;2023-08-31T01:00:06;3.37;;;3.07;;
62798;SDS011;48842;51.046;13.796;2023-08-31T01:02:50;3.23;;;3.03;;
62798;SDS011;48842;51.046;13.796;2023-08-31T01:05:32;3.73;;;3.30;;
62798;SDS011;48842;51.046;13.796;2023-08-31T01:08:08;2.80;;;2.60;;
62798;SDS011;48842;51.046;13.796;2023-08-31T01:13:24;3.43;;;3.13;;
62798;SDS011;48842;51.046;13.796;2023-08-31T01:15:51;3.50;;;2.60;;
62798;SDS011;48842;51.046;13.796;2023-08-31T01:18:20;6.13;;;2.70;;
62798;SDS011;48842;51.046;13.796;2023-08-31T01:26:18;3.10;;;2.90;;
62798;SDS011;48842;51.046;13.796;2023-08-31T01:28:44;3.43;;;2.93;;
62798;SDS011;48842;51.046;13.796;2023-08-31T01:31:11;2.83;;;2.57;;
62798;SDS011;48842;51.046;13.796;2023-08-31T01:33:36;3.17;;;3.00;;
62798;SDS011;48842;51.046;13.796;2023-08-31T01:36:01;3.90;;;3.50;;
62798;SDS011;48842;51.046;13.796;2023-08-31T01:38:30;3.70;;;3.40;;
62798;SDS011;48842;51.046;13.796;2023-08-31T01:41:00;3.33;;;3.10;;
62798;SDS011;48842;51.046;13.796;2023-08-31T01:43:31;2.63;;;2.40;;
62798;SDS011;48842;51.046;13.796;2023-08-31T01:45:57;2.70;;;2.50;;
62798;SDS011;48842;51.046;13.796;2023-08-31T01:48:23;5.27;;;2.20;;
62798;SDS011;48842;51.046;13.796;2023-08-31T01:50:49;1.97;;;1.87;;
62798;SDS011;48842;51.046;13.796;2023-08-31T01:53:14;1.90;;;1.80;;
62798;SDS011;48842;51.046;13.796;2023-08-31T01:55:39;4.90;;;2.17;;
62798;SDS011;48842;51.046;13.796;2023-08-31T01:58:04;2.10;;;2.00;;
62798;SDS011;48842;51.046;13.796;2023-08-31T02:00:29;2.30;;;2.10;;
62798;SDS011;48842;51.046;13.796;2023-08-31T02:02:59;1.47;;;1.37;;
62798;SDS011;48842;51.046;13.796;2023-08-31T02:05:24;2.83;;;2.00;;
62798;SDS011;48842;51.046;13.796;2023-08-31T02:07:50;1.77;;;1.67;;
62798;SDS011;48842;51.046;13.796;2023-08-31T02:10:15;1.73;;;1.63;;
62798;SDS011;48842;51.046;13.796;2023-08-31T02:12:40;3.23;;;1.93;;
62798;SDS011;48842;51.046;13.796;2023-08-31T02:15:06;1.83;;;1.73;;
62798;SDS011;48842;51.046;13.796;2023-08-31T02:17:32;1.20;;;1.20;;
62798;SDS011;48842;51.046;13.796;2023-08-31T02:19:58;1.63;;;1.53;;
62798;SDS011;48842;51.046;13.796;2023-08-31T02:22:24;2.40;;;1.63;;
62798;SDS011;48842;51.046;13.796;2023-08-31T02:24:49;2.43;;;1.43;;
62798;SDS011;48842;51.046;13.796;2023-08-31T02:27:14;1.70;;;1.60;;
62798;SDS011;48842;51.046;13.796;2023-08-31T02:29:40;2.07;;;1.87;;
62798;SDS011;48842;51.046;13.796;2023-08-31T02:32:05;2.50;;;1.43;;
62798;SDS011;48842;51.046;13.796;2023-08-31T02:34:30;1.60;;;1.50;;
62798;SDS011;48842;51.046;13.796;2023-08-31T02:36:56;2.97;;;1.70;;
62798;SDS011;48842;51.046;13.796;2023-08-31T02:39:21;3.30;;;1.60;;
62798;SDS011;48842;51.046;13.796;2023-08-31T02:41:46;2.00;;;1.80;;
62798;SDS011;48842;51.046;13.796;2023-08-31T02:44:12;1.70;;;1.60;;
62798;SDS011;48842;51.046;13.796;2023-08-31T02:46:37;3.27;;;1.80;;
62798;SDS011;48842;51.046;13.796;2023-08-31T02:49:02;1.40;;;1.30;;
62798;SDS011;48842;51.046;13.796;2023-08-31T02:51:28;1.70;;;1.60;;
62798;SDS011;48842;51.046;13.796;2023-08-31T02:53:53;1.93;;;1.20;;
62798;SDS011;48842;51.046;13.796;2023-08-31T02:56:18;1.57;;;1.47;;
62798;SDS011;48842;51.046;13.796;2023-08-31T02:58:43;1.50;;;1.40;;
62798;SDS011;48842;51.046;13.796;2023-08-31T03:01:09;1.37;;;1.27;;
62798;SDS011;48842;51.046;13.796;2023-08-31T03:03:36;1.70;;;1.50;;
62798;SDS011;48842;51.046;13.796;2023-08-31T03:06:02;1.63;;;1.53;;
62798;SDS011;48842;51.046;13.796;2023-08-31T03:08:28;2.37;;;1.40;;
62798;SDS011;48842;51.046;13.796;2023-08-31T03:10:53;1.60;;;1.50;;
62798;SDS011;48842;51.046;13.796;2023-08-31T03:13:20;1.60;;;1.50;;
62798;SDS011;48842;51.046;13.796;2023-08-31T03:15:45;1.70;;;1.60;;
62798;SDS011;48842;51.046;13.796;2023-08-31T03:18:10;1.40;;;1.30;;
62798;SDS011;48842;51.046;13.796;2023-08-31T03:20:35;1.40;;;1.30;;
62798;SDS011;48842;51.046;13.796;2023-08-31T03:23:01;1.40;;;1.30;;
62798;SDS011;48842;51.046;13.796;2023-08-31T03:25:27;1.83;;;1.67;;
62798;SDS011;48842;51.046;13.796;2023-08-31T03:27:52;1.73;;;1.37;;
62798;SDS011;48842;51.046;13.796;2023-08-31T03:30:17;1.53;;;1.43;;
62798;SDS011;48842;51.046;13.796;2023-08-31T03:32:43;1.40;;;1.30;;
62798;SDS011;48842;51.046;13.796;2023-08-31T03:35:08;1.47;;;1.33;;
62798;SDS011;48842;51.046;13.796;2023-08-31T03:37:33;1.40;;;1.00;;
62798;SDS011;48842;51.046;13.796;2023-08-31T03:39:59;3.33;;;1.60;;
62798;SDS011;48842;51.046;13.796;2023-08-31T03:42:24;1.90;;;1.67;;
62798;SDS011;48842;51.046;13.796;2023-08-31T03:44:49;1.50;;;1.40;;
62798;SDS011;48842;51.046;13.796;2023-08-31T03:47:14;1.40;;;1.30;;
62798;SDS011;48842;51.046;13.796;2023-08-31T03:49:40;1.60;;;1.50;;
62798;SDS011;48842;51.046;13.796;2023-08-31T03:52:05;1.40;;;1.30;;
62798;SDS011;48842;51.046;13.796;2023-08-31T03:54:30;1.03;;;0.93;;
62798;SDS011;48842;51.046;13.796;2023-08-31T03:56:55;1.60;;;1.50;;
62798;SDS011;48842;51.046;13.796;2023-08-31T03:59:21;1.30;;;1.20;;
62798;SDS011;48842;51.046;13.796;2023-08-31T04:01:46;1.63;;;1.53;;
62798;SDS011;48842;51.046;13.796;2023-08-31T04:04:11;3.87;;;1.47;;
62798;SDS011;48842;51.046;13.796;2023-08-31T04:06:37;1.57;;;1.47;;
62798;SDS011;48842;51.046;13.796;2023-08-31T04:09:02;1.30;;;1.20;;
62798;SDS011;48842;51.046;13.796;2023-08-31T04:11:28;1.90;;;1.80;;
62798;SDS011;48842;51.046;13.796;2023-08-31T04:13:53;1.60;;;1.50;;
62798;SDS011;48842;51.046;13.796;2023-08-31T04:16:18;1.57;;;1.47;;
62798;SDS011;48842;51.046;13.796;2023-08-31T04:18:43;1.67;;;1.57;;
62798;SDS011;48842;51.046;13.796;2023-08-31T04:21:12;1.60;;;1.50;;
62798;SDS011;48842;51.046;13.796;2023-08-31T04:23:38;1.63;;;1.40;;
62798;SDS011;48842;51.046;13.796;2023-08-31T04:26:09;1.73;;;1.63;;
62798;SDS011;48842;51.046;13.796;2023-08-31T04:28:36;1.70;;;1.60;;
62798;SDS011;48842;51.046;13.796;2023-08-31T04:31:04;1.40;;;1.30;;
62798;SDS011;48842;51.046;13.796;2023-08-31T04:33:29;4.97;;;1.90;;
62798;SDS011;48842;51.046;13.796;2023-08-31T04:35:55;2.40;;;1.90;;
62798;SDS011;48842;51.046;13.796;2023-08-31T04:38:20;3.53;;;1.50;;
62798;SDS011;48842;51.046;13.796;2023-08-31T04:40:45;5.90;;;1.50;;
62798;SDS011;48842;51.046;13.796;2023-08-31T04:43:10;1.70;;;1.60;;
62798;SDS011;48842;51.046;13.796;2023-08-31T04:45:36;1.40;;;1.30;;
62798;SDS011;48842;51.046;13.796;2023-08-31T04:48:01;2.20;;;1.90;;
62798;SDS011;48842;51.046;13.796;2023-08-31T04:50:26;1.47;;;1.40;;
62798;SDS011;48842;51.046;13.796;2023-08-31T04:52:51;2.27;;;1.90;;
62798;SDS011;48842;51.046;13.796;2023-08-31T04:55:17;1.70;;;1.37;;
62798;SDS011;48842;51.046;13.796;2023-08-31T04:57:42;2.10;;;2.00;;
62798;SDS011;48842;51.046;13.796;2023-08-31T05:00:07;2.40;;;2.13;;
62798;SDS011;48842;51.046;13.796;2023-08-31T05:02:34;1.93;;;1.83;;
62798;SDS011;48842;51.046;13.796;2023-08-31T05:04:59;1.77;;;1.67;;
62798;SDS011;48842;51.046;13.796;2023-08-31T05:07:25;1.93;;;1.83;;
62798;SDS011;48842;51.046;13.796;2023-08-31T05:09:50;2.60;;;2.40;;
62798;SDS011;48842;51.046;13.796;2023-08-31T05:12:15;1.80;;;1.67;;
62798;SDS011;48842;51.046;13.796;2023-08-31T05:14:42;2.43;;;2.27;;
62798;SDS011;48842;51.046;13.796;2023-08-31T05:17:07;1.93;;;1.83;;
62798;SDS011;48842;51.046;13.796;2023-08-31T05:19:33;2.00;;;1.90;;
62798;SDS011;48842;51.046;13.796;2023-08-31T05:21:58;2.30;;;2.20;;
62798;SDS011;48842;51.046;13.796;2023-08-31T05:24:23;3.43;;;1.73;;
62798;SDS011;48842;51.046;13.796;2023-08-31T05:26:50;3.10;;;2.80;;
62798;SDS011;48842;51.046;13.796;2023-08-31T05:29:17;3.77;;;2.60;;
62798;SDS011;48842;51.046;13.796;2023-08-31T05:31:42;4.43;;;2.60;;
62798;SDS011;48842;51.046;13.796;2023-08-31T05:34:09;6.63;;;2.50;;
62798;SDS011;48842;51.046;13.796;2023-08-31T05:36:35;2.70;;;2.30;;
62798;SDS011;48842;51.046;13.796;2023-08-31T05:39:00;4.20;;;2.70;;
62798;SDS011;48842;51.046;13.796;2023-08-31T05:41:25;2.73;;;2.53;;
62798;SDS011;48842;51.046;13.796;2023-08-31T05:43:51;3.50;;;3.20;;
62798;SDS011;48842;51.046;13.796;2023-08-31T05:46:17;3.50;;;2.70;;
62798;SDS011;48842;51.046;13.796;2023-08-31T05:48:42;2.90;;;2.37;;
62798;SDS011;48842;51.046;13.796;2023-08-31T05:51:07;3.67;;;2.90;;
62798;SDS011;48842;51.046;13.796;2023-08-31T05:53:33;7.60;;;3.33;;
62798;SDS011;48842;51.046;13.796;2023-08-31T05:55:58;9.17;;;3.07;;
62798;SDS011;48842;51.046;13.796;2023-08-31T05:58:33;4.00;;;2.93;;
62798;SDS011;48842;51.046;13.796;2023-08-31T06:01:00;7.33;;;3.00;;
62798;SDS011;48842;51.046;13.796;2023-08-31T06:03:28;5.03;;;2.80;;
62798;SDS011;48842;51.046;13.796;2023-08-31T06:05:54;4.23;;;2.73;;
62798;SDS011;48842;51.046;13.796;2023-08-31T06:08:20;4.10;;;3.17;;
62798;SDS011;48842;51.046;13.796;2023-08-31T06:10:46;4.13;;;2.57;;
62798;SDS011;48842;51.046;13.796;2023-08-31T06:13:11;3.37;;;2.90;;
62798;SDS011;48842;51.046;13.796;2023-08-31T06:15:36;2.40;;;2.20;;
62798;SDS011;48842;51.046;13.796;2023-08-31T06:18:01;5.13;;;3.00;;
62798;SDS011;48842;51.046;13.796;2023-08-31T06:20:27;2.73;;;2.53;;
62798;SDS011;48842;51.046;13.796;2023-08-31T06:22:53;3.70;;;2.60;;
62798;SDS011;48842;51.046;13.796;2023-08-31T06:25:18;3.73;;;3.00;;
62798;SDS011;48842;51.046;13.796;2023-08-31T06:27:43;3.13;;;2.80;;
62798;SDS011;48842;51.046;13.796;2023-08-31T06:30:09;5.10;;;2.97;;
62798;SDS011;48842;51.046;13.796;2023-08-31T06:32:40;5.93;;;1.90;;
62798;SDS011;48842;51.046;13.796;2023-08-31T06:35:06;4.60;;;2.53;;
62798;SDS011;48842;51.046;13.796;2023-08-31T06:37:31;2.70;;;2.50;;
62798;SDS011;48842;51.046;13.796;2023-08-31T06:39:56;2.57;;;2.20;;
62798;SDS011;48842;51.046;13.796;2023-08-31T06:42:21;4.60;;;2.60;;
62798;SDS011;48842;51.046;13.796;2023-08-31T06:44:47;8.00;;;3.17;;
62798;SDS011;48842;51.046;13.796;2023-08-31T06:47:12;3.33;;;3.03;;
62798;SDS011;48842;51.046;13.796;2023-08-31T06:49:41;2.90;;;2.63;;
62798;SDS011;48842;51.046;13.796;2023-08-31T06:52:06;9.43;;;3.00;;
62798;SDS011;48842;51.046;13.796;2023-08-31T06:54:32;4.13;;;2.73;;
62798;SDS011;48842;51.046;13.796;2023-08-31T06:56:58;3.00;;;2.70;;
62798;SDS011;48842;51.046;13.796;2023-08-31T06:59:23;2.70;;;2.50;;
62798;SDS011;48842;51.046;13.796;2023-08-31T07:01:49;5.10;;;3.97;;
62798;SDS011;48842;51.046;13.796;2023-08-31T07:04:15;4.03;;;3.43;;
62798;SDS011;48842;51.046;13.796;2023-08-31T07:06:40;6.47;;;3.20;;
62798;SDS011;48842;51.046;13.796;2023-08-31T07:09:05;4.60;;;3.67;;
62798;SDS011;48842;51.046;13.796;2023-08-31T07:11:31;3.67;;;2.50;;
62798;SDS011;48842;51.046;13.796;2023-08-31T07:13:57;3.30;;;2.70;;
62798;SDS011;48842;51.046;13.796;2023-08-31T07:16:22;5.30;;;3.00;;
62798;SDS011;48842;51.046;13.796;2023-08-31T07:18:48;3.53;;;2.80;;
62798;SDS011;48842;51.046;13.796;2023-08-31T07:21:13;5.10;;;2.70;;
62798;SDS011;48842;51.046;13.796;2023-08-31T07:23:38;3.00;;;2.70;;
62798;SDS011;48842;51.046;13.796;2023-08-31T07:26:03;3.73;;;3.00;;
62798;SDS011;48842;51.046;13.796;2023-08-31T07:28:29;4.17;;;2.30;;
62798;SDS011;48842;51.046;13.796;2023-08-31T07:31:02;6.13;;;2.20;;
62798;SDS011;48842;51.046;13.796;2023-08-31T07:33:28;3.43;;;2.53;;
62798;SDS011;48842;51.046;13.796;2023-08-31T07:35:56;7.80;;;2.57;;
62798;SDS011;48842;51.046;13.796;2023-08-31T07:38:21;4.70;;;2.30;;
62798;SDS011;48842;51.046;13.796;2023-08-31T07:40:46;5.47;;;2.87;;
62798;SDS011;48842;51.046;13.796;2023-08-31T07:43:12;7.80;;;2.43;;
62798;SDS011;48842;51.046;13.796;2023-08-31T07:45:37;3.20;;;2.40;;
62798;SDS011;48842;51.046;13.796;2023-08-31T07:48:02;6.43;;;3.10;;
62798;SDS011;48842;51.046;13.796;2023-08-31T07:50:28;3.70;;;2.07;;
62798;SDS011;48842;51.046;13.796;2023-08-31T07:52:53;5.07;;;2.67;;
62798;SDS011;48842;51.046;13.796;2023-08-31T07:55:18;2.50;;;2.30;;
62798;SDS011;48842;51.046;13.796;2023-08-31T07:57:44;3.43;;;2.43;;
62798;SDS011;48842;51.046;13.796;2023-08-31T08:00:09;4.03;;;2.07;;
62798;SDS011;48842;51.046;13.796;2023-08-31T08:02:34;4.80;;;2.13;;
62798;SDS011;48842;51.046;13.796;2023-08-31T08:05:00;7.70;;;2.40;;
62798;SDS011;48842;51.046;13.796;2023-08-31T08:07:25;6.53;;;2.50;;
62798;SDS011;48842;51.046;13.796;2023-08-31T08:09:50;3.20;;;1.90;;
62798;SDS011;48842;51.046;13.796;2023-08-31T08:12:15;7.73;;;2.13;;
62798;SDS011;48842;51.046;13.796;2023-08-31T08:14:41;2.50;;;1.80;;
62798;SDS011;48842;51.046;13.796;2023-08-31T08:17:06;3.37;;;2.40;;
62798;SDS011;48842;51.046;13.796;2023-08-31T08:19:31;2.83;;;1.80;;
62798;SDS011;48842;51.046;13.796;2023-08-31T08:21:56;2.10;;;1.67;;
62798;SDS011;48842;51.046;13.796;2023-08-31T08:24:22;3.93;;;2.40;;
62798;SDS011;48842;51.046;13.796;2023-08-31T08:26:47;2.17;;;2.00;;
62798;SDS011;48842;51.046;13.796;2023-08-31T08:29:12;2.80;;;2.17;;
62798;SDS011;48842;51.046;13.796;2023-08-31T08:31:38;2.10;;;1.90;;
62798;SDS011;48842;51.046;13.796;2023-08-31T08:34:03;6.37;;;2.53;;
62798;SDS011;48842;51.046;13.796;2023-08-31T08:36:29;4.20;;;2.33;;
62798;SDS011;48842;51.046;13.796;2023-08-31T08:38:54;4.60;;;2.03;;
62798;SDS011;48842;51.046;13.796;2023-08-31T08:41:23;2.90;;;1.90;;
62798;SDS011;48842;51.046;13.796;2023-08-31T08:43:50;2.27;;;2.10;;
62798;SDS011;48842;51.046;13.796;2023-08-31T08:46:16;2.53;;;2.03;;
62798;SDS011;48842;51.046;13.796;2023-08-31T08:48:41;2.57;;;2.37;;
62798;SDS011;48842;51.046;13.796;2023-08-31T08:51:07;3.47;;;2.07;;
62798;SDS011;48842;51.046;13.796;2023-08-31T08:53:33;2.90;;;2.47;;
62798;SDS011;48842;51.046;13.796;2023-08-31T08:55:58;4.07;;;2.07;;
62798;SDS011;48842;51.046;13.796;2023-08-31T08:58:24;6.47;;;1.90;;
62798;SDS011;48842;51.046;13.796;2023-08-31T09:00:49;5.27;;;2.13;;
62798;SDS011;48842;51.046;13.796;2023-08-31T09:03:15;3.80;;;2.00;;
62798;SDS011;48842;51.046;13.796;2023-08-31T09:05:41;2.70;;;1.90;;
62798;SDS011;48842;51.046;13.796;2023-08-31T09:08:07;3.00;;;2.03;;
62798;SDS011;48842;51.046;13.796;2023-08-31T09:10:44;2.70;;;2.23;;
62798;SDS011;48842;51.046;13.796;2023-08-31T09:13:10;5.53;;;1.80;;
62798;SDS011;48842;51.046;13.796;2023-08-31T09:15:41;2.40;;;1.90;;
62798;SDS011;48842;51.046;13.796;2023-08-31T09:18:13;1.63;;;1.30;;
62798;SDS011;48842;51.046;13.796;2023-08-31T09:20:52;1.87;;;1.37;;
62798;SDS011;48842;51.046;13.796;2023-08-31T09:23:18;2.37;;;1.60;;
62798;SDS011;48842;51.046;13.796;2023-08-31T09:25:44;4.27;;;2.07;;
62798;SDS011;48842;51.046;13.796;2023-08-31T09:28:11;2.33;;;1.80;;
62798;SDS011;48842;51.046;13.796;2023-08-31T09:30:37;6.33;;;1.87;;
62798;SDS011;48842;51.046;13.796;2023-08-31T09:33:05;3.43;;;1.90;;
62798;SDS011;48842;51.046;13.796;2023-08-31T09:35:31;2.40;;;1.60;;
62798;SDS011;48842;51.046;13.796;2023-08-31T09:37:57;2.60;;;1.70;;
62798;SDS011;48842;51.046;13.796;2023-08-31T09:40:22;1.90;;;1.80;;
62798;SDS011;48842;51.046;13.796;2023-08-31T09:42:51;3.80;;;2.40;;
62798;SDS011;48842;51.046;13.796;2023-08-31T09:45:17;2.60;;;1.60;;
62798;SDS011;48842;51.046;13.796;2023-08-31T09:47:43;1.73;;;1.63;;
62798;SDS011;48842;51.046;13.796;2023-08-31T09:50:09;4.03;;;2.00;;
62798;SDS011;48842;51.046;13.796;2023-08-31T09:52:35;3.30;;;2.23;;
62798;SDS011;48842;51.046;13.796;2023-08-31T09:55:02;1.90;;;1.70;;
62798;SDS011;48842;51.046;13.796;2023-08-31T09:57:29;4.90;;;1.90;;
62798;SDS011;48842;51.046;13.796;2023-08-31T09:59:58;3.87;;;2.40;;
62798;SDS011;48842;51.046;13.796;2023-08-31T10:02:24;2.03;;;1.87;;
62798;SDS011;48842;51.046;13.796;2023-08-31T10:04:51;2.17;;;2.07;;
62798;SDS011;48842;51.046;13.796;2023-08-31T10:07:17;3.07;;;2.50;;
62798;SDS011;48842;51.046;13.796;2023-08-31T10:09:44;2.07;;;1.93;;
62798;SDS011;48842;51.046;13.796;2023-08-31T10:12:10;3.30;;;1.83;;
62798;SDS011;48842;51.046;13.796;2023-08-31T10:14:36;2.17;;;1.97;;
62798;SDS011;48842;51.046;13.796;2023-08-31T10:17:01;3.10;;;2.33;;
62798;SDS011;48842;51.046;13.796;2023-08-31T10:19:27;4.00;;;1.67;;
62798;SDS011;48842;51.046;13.796;2023-08-31T10:21:53;2.87;;;2.00;;
62798;SDS011;48842;51.046;13.796;2023-08-31T10:24:18;4.80;;;2.23;;
62798;SDS011;48842;51.046;13.796;2023-08-31T10:27:23;2.63;;;1.70;;
62798;SDS011;48842;51.046;13.796;2023-08-31T10:29:49;3.07;;;2.00;;
62798;SDS011;48842;51.046;13.796;2023-08-31T10:32:17;2.93;;;1.83;;
62798;SDS011;48842;51.046;13.796;2023-08-31T10:35:03;2.33;;;2.13;;
62798;SDS011;48842;51.046;13.796;2023-08-31T10:37:29;4.87;;;2.30;;
62798;SDS011;48842;51.046;13.796;2023-08-31T10:40:10;2.27;;;2.03;;
62798;SDS011;48842;51.046;13.796;2023-08-31T10:42:43;2.40;;;1.53;;
62798;SDS011;48842;51.046;13.796;2023-08-31T10:45:15;2.60;;;1.90;;
62798;SDS011;48842;51.046;13.796;2023-08-31T10:47:46;2.80;;;1.80;;
62798;SDS011;48842;51.046;13.796;2023-08-31T10:50:21;3.10;;;1.60;;
62798;SDS011;48842;51.046;13.796;2023-08-31T10:52:47;3.63;;;1.07;;
62798;SDS011;48842;51.046;13.796;2023-08-31T10:55:13;2.00;;;1.40;;
62798;SDS011;48842;51.046;13.796;2023-08-31T10:57:39;3.20;;;1.30;;
62798;SDS011;48842;51.046;13.796;2023-08-31T11:00:06;2.90;;;1.50;;
62798;SDS011;48842;51.046;13.796;2023-08-31T11:02:35;2.40;;;1.50;;
62798;SDS011;48842;51.046;13.796;2023-08-31T11:07:31;4.00;;;1.03;;
62798;SDS011;48842;51.046;13.796;2023-08-31T11:10:09;2.47;;;1.57;;
62798;SDS011;48842;51.046;13.796;2023-08-31T11:12:36;5.70;;;1.20;;
62798;SDS011;48842;51.046;13.796;2023-08-31T11:15:02;2.20;;;1.57;;
62798;SDS011;48842;51.046;13.796;2023-08-31T11:17:28;3.00;;;2.07;;
62798;SDS011;48842;51.046;13.796;2023-08-31T11:19:54;2.23;;;1.60;;
62798;SDS011;48842;51.046;13.796;2023-08-31T11:22:19;5.90;;;1.43;;
62798;SDS011;48842;51.046;13.796;2023-08-31T11:24:45;11.00;;;1.23;;
62798;SDS011;48842;51.046;13.796;2023-08-31T11:27:11;2.30;;;0.90;;
62798;SDS011;48842;51.046;13.796;2023-08-31T11:29:37;11.17;;;1.20;;
62798;SDS011;48842;51.046;13.796;2023-08-31T11:32:03;4.07;;;1.20;;
62798;SDS011;48842;51.046;13.796;2023-08-31T11:34:29;1.30;;;1.20;;
62798;SDS011;48842;51.046;13.796;2023-08-31T11:36:54;1.43;;;1.10;;
62798;SDS011;48842;51.046;13.796;2023-08-31T11:39:19;5.00;;;1.27;;
62798;SDS011;48842;51.046;13.796;2023-08-31T11:41:45;1.93;;;1.27;;
62798;SDS011;48842;51.046;13.796;2023-08-31T11:44:11;1.23;;;0.97;;
62798;SDS011;48842;51.046;13.796;2023-08-31T11:46:39;4.10;;;1.10;;
62798;SDS011;48842;51.046;13.796;2023-08-31T11:49:06;1.87;;;1.00;;
62798;SDS011;48842;51.046;13.796;2023-08-31T11:51:32;4.43;;;0.70;;
62798;SDS011;48842;51.046;13.796;2023-08-31T11:54:00;1.33;;;1.23;;
62798;SDS011;48842;51.046;13.796;2023-08-31T11:56:27;1.77;;;1.00;;
62798;SDS011;48842;51.046;13.796;2023-08-31T11:58:52;2.63;;;1.50;;
62798;SDS011;48842;51.046;13.796;2023-08-31T12:01:19;1.93;;;1.40;;
62798;SDS011;48842;51.046;13.796;2023-08-31T12:03:46;3.93;;;1.27;;
62798;SDS011;48842;51.046;13.796;2023-08-31T12:06:14;1.27;;;0.90;;
62798;SDS011;48842;51.046;13.796;2023-08-31T12:08:41;2.50;;;1.10;;
62798;SDS011;48842;51.046;13.796;2023-08-31T12:11:07;1.10;;;1.00;;
62798;SDS011;48842;51.046;13.796;2023-08-31T12:13:32;1.37;;;0.80;;
62798;SDS011;48842;51.046;13.796;2023-08-31T12:15:57;0.97;;;0.83;;
62798;SDS011;48842;51.046;13.796;2023-08-31T12:18:23;1.07;;;0.80;;
62798;SDS011;48842;51.046;13.796;2023-08-31T12:20:51;1.27;;;1.13;;
62798;SDS011;48842;51.046;13.796;2023-08-31T12:23:17;12.73;;;1.57;;
62798;SDS011;48842;51.046;13.796;2023-08-31T12:25:48;1.30;;;0.97;;
62798;SDS011;48842;51.046;13.796;2023-08-31T12:28:20;1.20;;;1.10;;
62798;SDS011;48842;51.046;13.796;2023-08-31T12:30:48;1.87;;;1.30;;
62798;SDS011;48842;51.046;13.796;2023-08-31T12:33:14;2.10;;;1.30;;
62798;SDS011;48842;51.046;13.796;2023-08-31T12:35:40;1.50;;;1.20;;
62798;SDS011;48842;51.046;13.796;2023-08-31T12:38:05;3.40;;;1.20;;
62798;SDS011;48842;51.046;13.796;2023-08-31T12:40:30;1.30;;;1.20;;
62798;SDS011;48842;51.046;13.796;2023-08-31T12:42:55;1.90;;;1.60;;
62798;SDS011;48842;51.046;13.796;2023-08-31T12:45:21;4.00;;;0.87;;
62798;SDS011;48842;51.046;13.796;2023-08-31T12:47:46;1.33;;;0.97;;
62798;SDS011;48842;51.046;13.796;2023-08-31T12:50:12;2.70;;;1.30;;
62798;SDS011;48842;51.046;13.796;2023-08-31T12:52:38;1.23;;;0.90;;
62798;SDS011;48842;51.046;13.796;2023-08-31T12:55:09;3.23;;;1.43;;
62798;SDS011;48842;51.046;13.796;2023-08-31T12:57:37;2.13;;;1.20;;
62798;SDS011;48842;51.046;13.796;2023-08-31T13:00:03;1.40;;;1.00;;
62798;SDS011;48842;51.046;13.796;2023-08-31T13:02:30;1.30;;;1.10;;
62798;SDS011;48842;51.046;13.796;2023-08-31T13:04:55;1.20;;;1.10;;
62798;SDS011;48842;51.046;13.796;2023-08-31T13:07:21;1.50;;;1.20;;
62798;SDS011;48842;51.046;13.796;2023-08-31T13:09:46;2.67;;;1.20;;
62798;SDS011;48842;51.046;13.796;2023-08-31T13:12:11;3.80;;;1.50;;
62798;SDS011;48842;51.046;13.796;2023-08-31T13:14:36;2.50;;;1.17;;
62798;SDS011;48842;51.046;13.796;2023-08-31T13:17:02;1.63;;;1.53;;
62798;SDS011;48842;51.046;13.796;2023-08-31T13:19:28;2.77;;;1.60;;
62798;SDS011;48842;51.046;13.796;2023-08-31T13:21:53;2.20;;;1.27;;
62798;SDS011;48842;51.046;13.796;2023-08-31T13:24:19;5.80;;;1.40;;
62798;SDS011;48842;51.046;13.796;2023-08-31T13:26:44;1.60;;;1.50;;
62798;SDS011;48842;51.046;13.796;2023-08-31T13:29:12;1.40;;;1.30;;
62798;SDS011;48842;51.046;13.796;2023-08-31T13:31:38;2.90;;;1.30;;
62798;SDS011;48842;51.046;13.796;2023-08-31T13:34:04;1.53;;;1.23;;
62798;SDS011;48842;51.046;13.796;2023-08-31T13:36:31;3.70;;;1.13;;
62798;SDS011;48842;51.046;13.796;2023-08-31T13:38:57;1.60;;;1.27;;
62798;SDS011;48842;51.046;13.796;2023-08-31T13:41:22;1.37;;;1.27;;
62798;SDS011;48842;51.046;13.796;2023-08-31T13:43:49;3.27;;;1.23;;
62798;SDS011;48842;51.046;13.796;2023-08-31T13:46:17;2.90;;;1.23;;
62798;SDS011;48842;51.046;13.796;2023-08-31T13:48:42;2.70;;;1.00;;
62798;SDS011;48842;51.046;13.796;2023-08-31T13:51:08;3.23;;;1.03;;
62798;SDS011;48842;51.046;13.796;2023-08-31T13:53:33;2.50;;;1.00;;
62798;SDS011;48842;51.046;13.796;2023-08-31T13:55:59;2.10;;;0.90;;
62798;SDS011;48842;51.046;13.796;2023-08-31T13:58:24;2.20;;;1.20;;
62798;SDS011;48842;51.046;13.796;2023-08-31T14:00:49;1.30;;;0.93;;
62798;SDS011;48842;51.046;13.796;2023-08-31T14:03:15;5.50;;;1.27;;
62798;SDS011;48842;51.046;13.796;2023-08-31T14:05:41;1.50;;;1.00;;
62798;SDS011;48842;51.046;13.796;2023-08-31T14:08:06;2.70;;;1.20;;
62798;SDS011;48842;51.046;13.796;2023-08-31T14:10:32;3.53;;;1.57;;
62798;SDS011;48842;51.046;13.796;2023-08-31T14:13:00;1.57;;;1.40;;
62798;SDS011;48842;51.046;13.796;2023-08-31T14:15:25;5.77;;;1.10;;
62798;SDS011;48842;51.046;13.796;2023-08-31T14:17:51;4.80;;;1.30;;
62798;SDS011;48842;51.046;13.796;2023-08-31T14:20:18;1.70;;;1.60;;
62798;SDS011;48842;51.046;13.796;2023-08-31T14:22:43;2.40;;;1.57;;
62798;SDS011;48842;51.046;13.796;2023-08-31T14:25:10;2.70;;;1.40;;
62798;SDS011;48842;51.046;13.796;2023-08-31T14:27:36;2.83;;;2.17;;
62798;SDS011;48842;51.046;13.796;2023-08-31T14:30:01;1.67;;;1.20;;
62798;SDS011;48842;51.046;13.796;2023-08-31T14:32:27;2.60;;;2.07;;
62798;SDS011;48842;51.046;13.796;2023-08-31T14:34:53;2.87;;;1.30;;
62798;SDS011;48842;51.046;13.796;2023-08-31T14:37:19;1.80;;;1.43;;
62798;SDS011;48842;51.046;13.796;2023-08-31T14:39:44;2.17;;;1.97;;